Time;durP1;ratioP1;P1;durP2;ratioP2;P2;SDS_P1;SDS_P2;PMS_P1;PMS_P2;Temp;Humidity;BMP_temperature;BMP_pressure;BME280_temperature;BME280_humidity;BME280_pressure;Samples;Min_cycle;Max_cycle;Signal;HPM_P1;HPM_P2
2021/09/17 00:01:31;;;;;;;3.13;2.25;;;16.80;76.30;;;;;;5044559;28;20052;-78
2021/09/17 00:03:56;;;;;;;4.25;2.65;;;16.70;75.90;;;;;;5056592;28;20045;-78
2021/09/17 00:06:22;;;;;;;3.97;2.63;;;16.80;75.80;;;;;;5058143;28;20027;-78
2021/09/17 00:08:48;;;;;;;3.35;2.95;;;16.80;75.50;;;;;;5056701;28;20036;-78
2021/09/17 00:11:14;;;;;;;3.13;2.42;;;16.80;75.50;;;;;;5057944;28;20493;-78
2021/09/17 00:13:39;;;;;;;3.40;2.67;;;16.80;75.20;;;;;;5057844;28;20029;-77
2021/09/17 00:16:08;;;;;;;5.40;2.78;;;16.80;75.80;;;;;;5058265;28;20503;-78
2021/09/17 00:18:33;;;;;;;4.72;2.78;;;16.70;75.50;;;;;;5040709;28;20037;-78
2021/09/17 00:20:59;;;;;;;2.95;2.45;;;16.70;75.70;;;;;;5036704;28;20030;-78
2021/09/17 00:23:25;;;;;;;4.00;2.65;;;16.70;75.90;;;;;;5037714;28;20025;-78
2021/09/17 00:25:51;;;;;;;3.42;2.80;;;16.60;76.10;;;;;;5037906;28;20444;-78
2021/09/17 00:28:17;;;;;;;4.10;2.88;;;16.60;76.20;;;;;;5051763;28;20071;-78
2021/09/17 00:30:42;;;;;;;2.95;2.20;;;16.60;76.20;;;;;;5059497;28;20056;-78
2021/09/17 00:33:08;;;;;;;3.80;2.92;;;16.60;75.90;;;;;;5036422;28;20022;-78
2021/09/17 00:35:34;;;;;;;3.88;2.60;;;16.50;76.30;;;;;;5037473;28;20026;-78
2021/09/17 00:38:01;;;;;;;3.33;2.65;;;16.40;76.40;;;;;;5037614;28;20048;-78
2021/09/17 00:40:27;;;;;;;3.00;2.28;;;16.40;76.60;;;;;;5037729;28;20056;-78
2021/09/17 00:42:53;;;;;;;3.95;2.42;;;16.30;77.00;;;;;;5036003;28;20112;-78
2021/09/17 00:45:19;;;;;;;3.08;2.40;;;16.30;77.10;;;;;;5036060;28;20057;-78
2021/09/17 00:47:44;;;;;;;3.25;2.50;;;16.30;76.80;;;;;;5037630;28;20103;-78
2021/09/17 00:50:17;;;;;;;3.65;2.40;;;16.30;76.70;;;;;;5036150;28;20026;-79
2021/09/17 00:52:43;;;;;;;5.00;2.47;;;16.30;76.40;;;;;;5036041;28;20025;-78
2021/09/17 00:55:10;;;;;;;2.72;2.35;;;16.30;76.30;;;;;;5037209;28;20055;-78
2021/09/17 00:57:36;;;;;;;3.00;2.67;;;16.30;76.40;;;;;;5037271;28;20396;-78
2021/09/17 01:00:08;;;;;;;3.00;2.50;;;16.30;76.10;;;;;;5037006;28;20104;-78
2021/09/17 01:02:33;;;;;;;2.97;2.65;;;16.30;76.00;;;;;;5037248;28;20068;-78
2021/09/17 01:05:00;;;;;;;4.25;2.90;;;16.30;76.50;;;;;;5036897;28;20038;-78
2021/09/17 01:07:28;;;;;;;3.85;2.80;;;16.20;76.80;;;;;;5035942;28;20033;-78
2021/09/17 01:09:55;;;;;;;4.50;2.72;;;16.20;76.60;;;;;;5037122;28;20022;-78
2021/09/17 01:12:21;;;;;;;3.90;2.85;;;16.20;76.60;;;;;;5037123;28;20030;-78
2021/09/17 01:14:47;;;;;;;5.03;2.60;;;16.20;76.80;;;;;;5036744;28;20030;-78
2021/09/17 01:17:13;;;;;;;3.33;2.92;;;16.10;77.00;;;;;;5052077;28;20120;-78
2021/09/17 01:19:39;;;;;;;3.30;2.55;;;16.00;77.30;;;;;;5052253;28;20053;-78
2021/09/17 01:22:07;;;;;;;3.30;2.67;;;16.10;77.10;;;;;;5052033;28;20063;-78
2021/09/17 01:24:40;;;;;;;4.15;2.78;;;16.10;77.00;;;;;;5039218;28;20052;-78
2021/09/17 01:27:07;;;;;;;4.50;2.70;;;16.10;77.50;;;;;;5050447;28;20057;-78
2021/09/17 01:29:34;;;;;;;5.05;3.28;;;16.00;77.40;;;;;;5054040;28;20026;-78
2021/09/17 01:32:00;;;;;;;3.45;3.03;;;16.00;77.10;;;;;;5076291;28;20028;-78
2021/09/17 01:34:25;;;;;;;3.83;2.95;;;16.10;77.00;;;;;;5054112;28;20082;-78
2021/09/17 01:36:52;;;;;;;3.30;2.38;;;16.10;76.60;;;;;;5045599;28;20033;-78
2021/09/17 01:39:20;;;;;;;3.15;2.60;;;16.00;76.70;;;;;;5035038;28;20068;-78
2021/09/17 01:41:49;;;;;;;3.40;2.75;;;15.90;77.30;;;;;;5036312;28;20439;-78
2021/09/17 01:44:15;;;;;;;3.20;2.53;;;15.90;77.30;;;;;;5036266;28;20029;-78
2021/09/17 01:46:40;;;;;;;5.10;2.88;;;15.80;77.40;;;;;;5051708;28;20033;-78
2021/09/17 01:49:07;;;;;;;2.75;2.30;;;15.80;77.50;;;;;;5035823;28;20032;-78
2021/09/17 01:51:33;;;;;;;3.63;2.42;;;15.90;77.20;;;;;;5051648;28;20032;-78
2021/09/17 01:53:59;;;;;;;3.05;2.58;;;15.90;77.10;;;;;;5051574;28;20013;-79
2021/09/17 01:56:24;;;;;;;3.05;2.47;;;15.90;76.90;;;;;;5051084;28;20060;-78
2021/09/17 01:58:53;;;;;;;3.65;2.60;;;16.00;76.70;;;;;;5050589;28;20116;-78
2021/09/17 02:01:19;;;;;;;4.05;2.17;;;16.00;76.30;;;;;;5051458;28;20048;-79
2021/09/17 02:03:45;;;;;;;3.53;2.67;;;16.00;76.00;;;;;;5050927;28;20029;-78
2021/09/17 02:06:21;;;;;;;3.50;2.15;;;16.00;76.40;;;;;;5034856;28;20030;-78
2021/09/17 02:08:47;;;;;;;3.53;2.13;;;15.90;76.70;;;;;;5036050;28;20112;-78
2021/09/17 02:11:13;;;;;;;3.58;2.20;;;15.80;76.60;;;;;;5051406;28;20044;-78
2021/09/17 02:13:38;;;;;;;2.70;2.20;;;15.70;77.00;;;;;;5051253;28;20436;-78
2021/09/17 02:16:04;;;;;;;3.42;2.42;;;15.60;77.20;;;;;;5035591;28;20103;-78
2021/09/17 02:18:30;;;;;;;4.20;2.28;;;15.70;77.00;;;;;;5034353;28;20102;-78
2021/09/17 02:20:55;;;;;;;2.78;2.17;;;15.80;76.60;;;;;;5051108;28;20476;-78
2021/09/17 02:23:21;;;;;;;5.03;2.55;;;15.70;76.60;;;;;;5035527;28;20089;-78
2021/09/17 02:25:47;;;;;;;5.47;2.78;;;15.70;76.70;;;;;;5047592;28;20478;-78
2021/09/17 02:28:12;;;;;;;3.47;2.50;;;15.60;76.90;;;;;;5060582;28;20391;-79
2021/09/17 02:30:38;;;;;;;5.30;2.28;;;15.50;77.10;;;;;;5075617;28;20084;-78
2021/09/17 02:33:04;;;;;;;2.78;2.08;;;15.40;77.30;;;;;;5075496;28;20021;-79
2021/09/17 02:35:30;;;;;;;3.05;2.00;;;15.30;77.70;;;;;;5057603;28;20460;-79
2021/09/17 02:37:55;;;;;;;2.40;1.88;;;15.30;77.80;;;;;;5035596;28;20026;-78
2021/09/17 02:40:21;;;;;;;3.13;2.20;;;15.30;77.80;;;;;;5052967;28;20037;-79
2021/09/17 02:42:47;;;;;;;2.63;2.40;;;15.40;77.50;;;;;;5054030;28;20031;-79
2021/09/17 02:45:14;;;;;;;3.40;2.13;;;15.30;77.50;;;;;;5053953;28;20032;-79
2021/09/17 02:47:40;;;;;;;2.67;2.17;;;15.30;77.50;;;;;;5045699;28;20100;-79
2021/09/17 02:50:10;;;;;;;2.75;1.92;;;15.30;77.50;;;;;;5035826;28;20385;-79
2021/09/17 02:52:35;;;;;;;4.03;2.10;;;15.40;77.20;;;;;;5034545;28;20079;-79
2021/09/17 02:55:02;;;;;;;6.15;2.22;;;15.50;77.00;;;;;;5053815;28;20045;-79
2021/09/17 02:57:28;;;;;;;3.33;1.98;;;15.50;76.90;;;;;;5054066;28;20025;-79
2021/09/17 02:59:53;;;;;;;2.72;2.22;;;15.40;77.20;;;;;;5053081;28;20086;-78
2021/09/17 03:02:19;;;;;;;4.55;1.92;;;15.40;77.10;;;;;;5053978;28;20605;-79
2021/09/17 03:04:45;;;;;;;3.05;1.95;;;15.40;77.60;;;;;;5049316;28;20072;-79
2021/09/17 03:07:13;;;;;;;2.95;2.08;;;15.40;77.50;;;;;;5033684;28;20033;-79
2021/09/17 03:09:38;;;;;;;4.15;2.38;;;15.30;77.90;;;;;;5050526;28;20392;-79
2021/09/17 03:12:05;;;;;;;6.20;2.72;;;15.30;78.20;;;;;;5033721;28;20022;-79
2021/09/17 03:14:30;;;;;;;4.07;2.67;;;15.30;78.50;;;;;;5035387;28;20025;-78
2021/09/17 03:16:56;;;;;;;4.03;2.45;;;15.10;79.40;;;;;;5053921;28;20112;-79
2021/09/17 03:19:22;;;;;;;4.32;2.20;;;15.00;79.70;;;;;;5045804;28;20036;-79
2021/09/17 03:21:47;;;;;;;2.78;2.10;;;14.90;80.10;;;;;;5058963;28;20021;-79
2021/09/17 03:24:13;;;;;;;5.63;1.90;;;15.10;80.10;;;;;;5048811;28;20037;-79
2021/09/17 03:26:39;;;;;;;4.30;2.40;;;15.00;79.90;;;;;;5038840;28;20025;-79
2021/09/17 03:29:05;;;;;;;3.72;1.98;;;14.90;80.30;;;;;;5066155;28;20475;-78
2021/09/17 03:31:31;;;;;;;2.95;1.90;;;14.70;81.10;;;;;;5047169;28;20033;-79
2021/09/17 03:33:59;;;;;;;1.67;1.40;;;14.70;81.20;;;;;;5038834;28;20101;-79
2021/09/17 03:36:26;;;;;;;3.22;2.05;;;14.60;81.40;;;;;;5038614;28;20045;-79
2021/09/17 03:38:53;;;;;;;2.70;1.67;;;14.60;81.50;;;;;;5037317;28;20037;-79
2021/09/17 03:41:22;;;;;;;4.40;2.45;;;14.60;81.10;;;;;;5038610;28;20447;-79
2021/09/17 03:43:48;;;;;;;2.53;2.25;;;14.70;81.40;;;;;;5037363;28;20064;-79
2021/09/17 03:46:13;;;;;;;2.20;1.73;;;14.60;81.10;;;;;;5038480;28;20488;-79
2021/09/17 03:48:40;;;;;;;4.95;1.95;;;14.70;81.20;;;;;;5036721;28;20526;-79
2021/09/17 03:51:06;;;;;;;2.65;1.95;;;14.60;81.50;;;;;;5053873;28;20120;-79
2021/09/17 03:53:31;;;;;;;3.67;2.42;;;14.70;81.40;;;;;;5053740;28;20054;-79
2021/09/17 03:55:57;;;;;;;4.70;2.65;;;14.80;81.20;;;;;;5053430;28;20045;-79
2021/09/17 03:58:23;;;;;;;4.57;2.80;;;14.80;80.90;;;;;;5038318;28;20033;-79
2021/09/17 04:00:48;;;;;;;4.03;2.60;;;14.80;80.60;;;;;;5038349;28;20037;-79
2021/09/17 04:03:14;;;;;;;6.15;2.97;;;14.90;80.60;;;;;;5037802;28;20034;-79
2021/09/17 04:05:40;;;;;;;6.40;3.30;;;14.80;80.60;;;;;;5036841;28;20040;-79
2021/09/17 04:08:06;;;;;;;7.38;3.00;;;14.80;80.60;;;;;;5036681;28;20033;-79
2021/09/17 04:10:31;;;;;;;13.98;3.72;;;14.90;80.30;;;;;;5053559;28;20026;-79
2021/09/17 04:12:57;;;;;;;5.75;3.08;;;14.80;80.50;;;;;;5052045;28;20990;-79
2021/09/17 04:15:23;;;;;;;7.28;3.60;;;14.80;80.50;;;;;;5038118;28;20025;-79
2021/09/17 04:17:50;;;;;;;4.20;3.15;;;14.80;80.20;;;;;;5053126;28;20037;-79
2021/09/17 04:20:16;;;;;;;4.35;3.47;;;14.80;80.00;;;;;;5053673;28;20506;-79
2021/09/17 04:22:42;;;;;;;5.68;3.10;;;14.90;80.00;;;;;;5037842;28;20030;-79
2021/09/17 04:25:09;;;;;;;9.55;3.40;;;14.90;80.00;;;;;;5038256;28;20026;-79
2021/09/17 04:27:35;;;;;;;6.10;4.05;;;14.80;80.10;;;;;;5057831;28;20029;-79
2021/09/17 04:30:04;;;;;;;5.53;3.60;;;14.80;80.70;;;;;;5076215;28;20028;-79
2021/09/17 04:32:33;;;;;;;6.40;3.60;;;14.70;80.50;;;;;;5076111;28;20040;-79
2021/09/17 04:34:59;;;;;;;4.57;3.28;;;14.80;80.30;;;;;;5069587;28;20021;-78
2021/09/17 04:37:24;;;;;;;3.85;3.03;;;14.80;80.30;;;;;;5056195;28;20039;-81
2021/09/17 04:39:50;;;;;;;7.60;3.00;;;14.80;79.80;;;;;;5056523;28;20069;-75
2021/09/17 04:42:16;;;;;;;3.75;3.13;;;14.80;79.40;;;;;;5055951;28;20080;-79
2021/09/17 04:44:41;;;;;;;3.95;3.00;;;14.70;80.00;;;;;;5051674;28;20394;-77
2021/09/17 04:47:07;;;;;;;3.85;2.92;;;14.70;80.00;;;;;;5037344;28;20415;-77
2021/09/17 04:49:33;;;;;;;7.72;3.35;;;14.70;79.70;;;;;;5035944;28;20112;-79
2021/09/17 04:51:59;;;;;;;4.20;2.88;;;14.80;79.40;;;;;;5045777;28;20021;-76
2021/09/17 04:54:24;;;;;;;4.85;3.58;;;14.80;79.30;;;;;;5054197;28;20087;-77
2021/09/17 04:56:50;;;;;;;4.03;3.10;;;14.80;79.00;;;;;;5057011;28;20037;-77
2021/09/17 04:59:15;;;;;;;3.45;2.60;;;14.80;78.60;;;;;;5053741;28;20083;-78
2021/09/17 05:01:41;;;;;;;5.32;2.85;;;14.80;78.50;;;;;;5037033;28;20033;-78
2021/09/17 05:04:07;;;;;;;6.28;2.80;;;14.60;79.00;;;;;;5054959;28;20372;-77
2021/09/17 05:06:32;;;;;;;3.58;2.60;;;14.60;79.00;;;;;;5054999;28;20052;-78
2021/09/17 05:08:59;;;;;;;7.00;3.00;;;14.50;79.00;;;;;;5036612;28;20037;-75
2021/09/17 05:11:25;;;;;;;3.85;2.90;;;14.50;79.10;;;;;;5050737;28;20064;-81
2021/09/17 05:13:51;;;;;;;3.78;2.85;;;14.40;79.20;;;;;;5053727;28;20021;-79
2021/09/17 05:16:17;;;;;;;3.33;2.67;;;14.30;79.00;;;;;;5035483;28;20108;-80
2021/09/17 05:18:45;;;;;;;3.20;2.78;;;14.40;79.50;;;;;;5036113;28;20587;-79
2021/09/17 05:21:11;;;;;;;3.28;2.90;;;14.50;78.90;;;;;;5034411;28;20091;-79
2021/09/17 05:23:37;;;;;;;4.50;3.25;;;14.50;78.70;;;;;;5042979;28;20029;-86
2021/09/17 05:26:03;;;;;;;3.90;2.90;;;14.50;78.70;;;;;;5036486;28;20828;-83
2021/09/17 05:28:30;;;;;;;3.15;2.72;;;14.40;79.30;;;;;;5037526;28;20071;-87
2021/09/17 05:30:55;;;;;;;3.78;2.75;;;14.30;79.50;;;;;;5056047;28;20578;-86
2021/09/17 05:33:21;;;;;;;4.38;3.28;;;14.30;79.70;;;;;;5045561;28;20049;-85
2021/09/17 05:35:47;;;;;;;3.35;2.75;;;14.30;79.50;;;;;;5028570;28;20021;-87
2021/09/17 05:38:12;;;;;;;3.10;2.45;;;14.20;79.70;;;;;;5036165;28;20021;-82
2021/09/17 05:40:38;;;;;;;4.25;3.05;;;14.30;79.80;;;;;;5048320;28;20021;-82
2021/09/17 05:43:04;;;;;;;6.05;3.00;;;14.30;80.10;;;;;;5050443;28;20037;-83
2021/09/17 05:45:30;;;;;;;4.90;3.28;;;14.30;80.30;;;;;;5041507;28;20040;-86
2021/09/17 05:47:55;;;;;;;3.58;3.13;;;14.40;80.10;;;;;;5036843;28;20009;-86
2021/09/17 05:50:21;;;;;;;4.00;3.08;;;14.30;80.50;;;;;;5035511;28;20037;-85
2021/09/17 05:52:47;;;;;;;3.55;3.22;;;14.30;80.50;;;;;;5035469;28;20391;-80
2021/09/17 05:55:12;;;;;;;4.47;3.40;;;14.30;80.40;;;;;;5036068;28;20095;-87
2021/09/17 05:57:38;;;;;;;4.03;3.08;;;14.30;80.40;;;;;;5039874;28;20380;-87
2021/09/17 06:00:06;;;;;;;3.55;2.95;;;14.30;80.00;;;;;;5055585;28;20043;-86
2021/09/17 06:02:32;;;;;;;4.07;2.90;;;14.30;79.60;;;;;;5050010;28;20111;-86
2021/09/17 06:04:57;;;;;;;4.45;3.42;;;14.30;79.70;;;;;;5033438;28;20037;-86
2021/09/17 06:07:23;;;;;;;3.65;2.75;;;14.40;79.60;;;;;;5043470;28;20025;-87
2021/09/17 06:09:49;;;;;;;5.93;3.45;;;14.30;79.40;;;;;;5041919;28;20040;-87
2021/09/17 06:12:14;;;;;;;4.35;2.97;;;14.40;79.30;;;;;;5038190;28;20020;-87
2021/09/17 06:14:40;;;;;;;4.60;3.25;;;14.40;79.20;;;;;;5054696;28;20029;-86
2021/09/17 06:17:05;;;;;;;3.38;2.72;;;14.50;79.00;;;;;;5054909;28;20093;-86
2021/09/17 06:19:31;;;;;;;3.33;2.83;;;14.50;79.00;;;;;;5052950;28;20510;-87
2021/09/17 06:21:57;;;;;;;3.60;2.92;;;14.50;78.80;;;;;;5047214;28;20063;-87
2021/09/17 06:24:23;;;;;;;3.47;2.83;;;14.50;78.90;;;;;;5056536;28;20491;-85
2021/09/17 06:26:49;;;;;;;5.07;3.22;;;14.50;79.20;;;;;;5057984;28;20031;-86
2021/09/17 06:29:15;;;;;;;4.18;2.97;;;14.60;78.70;;;;;;5046160;28;20025;-86
2021/09/17 06:31:41;;;;;;;3.75;2.90;;;14.70;78.50;;;;;;5035193;28;20077;-86
2021/09/17 06:34:07;;;;;;;4.97;3.20;;;14.70;78.80;;;;;;5033014;28;20040;-86
2021/09/17 06:36:33;;;;;;;4.63;3.33;;;14.70;78.70;;;;;;5046942;28;20036;-86
2021/09/17 06:39:00;;;;;;;4.63;3.47;;;14.70;79.10;;;;;;5054930;28;20033;-88
2021/09/17 06:41:27;;;;;;;4.03;3.35;;;14.70;79.50;;;;;;5053485;28;20025;-87
2021/09/17 06:43:53;;;;;;;5.10;3.88;;;14.60;79.60;;;;;;5042145;28;20076;-87
2021/09/17 06:46:19;;;;;;;5.47;3.63;;;14.60;80.00;;;;;;5034911;28;20731;-86
2021/09/17 06:48:44;;;;;;;5.63;4.30;;;14.70;79.40;;;;;;5033498;28;20550;-86
2021/09/17 06:51:10;;;;;;;3.97;3.55;;;14.70;79.90;;;;;;5037597;28;20029;-86
2021/09/17 06:53:36;;;;;;;5.00;3.92;;;14.90;79.30;;;;;;5038615;28;20029;-87
2021/09/17 06:56:01;;;;;;;5.03;3.85;;;15.10;78.70;;;;;;5038820;28;20049;-87
2021/09/17 06:58:33;;;;;;;4.20;3.28;;;15.10;78.70;;;;;;5039438;28;20472;-90
2021/09/17 07:01:00;;;;;;;5.32;3.50;;;15.30;78.50;;;;;;5057049;28;20088;-89
2021/09/17 07:03:26;;;;;;;5.57;3.92;;;15.30;78.30;;;;;;5046996;28;20017;-89
2021/09/17 07:05:52;;;;;;;7.63;4.68;;;15.50;78.00;;;;;;5048285;28;20025;-89
2021/09/17 07:08:21;;;;;;;5.22;4.38;;;15.50;77.50;;;;;;5042055;28;20462;-89
2021/09/17 07:10:49;;;;;;;5.05;4.10;;;15.60;77.80;;;;;;5039596;28;20428;-89
2021/09/17 07:13:15;;;;;;;6.00;4.20;;;15.80;76.90;;;;;;5053253;28;20439;-89
2021/09/17 07:15:41;;;;;;;6.38;4.00;;;16.20;75.90;;;;;;5042026;28;20029;-89
2021/09/17 07:18:08;;;;;;;4.88;3.88;;;16.50;75.10;;;;;;5050905;28;20029;-89
2021/09/17 07:20:35;;;;;;;4.32;3.83;;;16.80;74.30;;;;;;5041995;28;20091;-90
2021/09/17 07:23:03;;;;;;;5.13;3.35;;;17.70;71.50;;;;;;5050283;28;20407;-89
2021/09/17 07:25:29;;;;;;;5.55;4.47;;;19.40;67.20;;;;;;5049089;28;20017;-89
2021/09/17 07:27:55;;;;;;;5.07;4.05;;;20.30;63.90;;;;;;5048728;28;20066;-88
2021/09/17 07:30:22;;;;;;;4.78;4.25;;;21.50;60.50;;;;;;5048897;28;20033;-89
2021/09/17 07:32:48;;;;;;;5.32;4.80;;;22.20;58.00;;;;;;5046884;28;20496;-90
2021/09/17 07:35:14;;;;;;;7.60;5.05;;;22.70;57.00;;;;;;5037006;28;20385;-91
2021/09/17 07:37:40;;;;;;;6.00;4.90;;;22.90;56.10;;;;;;5048923;28;20112;-91
2021/09/17 07:40:07;;;;;;;6.97;5.00;;;22.80;55.40;;;;;;5049473;28;20061;-90
2021/09/17 07:42:32;;;;;;;7.85;5.90;;;21.80;58.00;;;;;;5046925;28;20060;-89
2021/09/17 07:44:58;;;;;;;7.13;6.18;;;21.10;60.80;;;;;;5041615;28;20025;-89
2021/09/17 07:47:24;;;;;;;7.43;6.05;;;20.70;62.60;;;;;;5045585;28;20029;-90
2021/09/17 07:49:51;;;;;;;8.05;5.93;;;20.40;63.70;;;;;;5045018;28;20521;-88
2021/09/17 07:52:16;;;;;;;7.70;6.05;;;20.00;65.10;;;;;;5048239;28;20021;-88
2021/09/17 07:54:42;;;;;;;7.07;6.03;;;20.00;65.00;;;;;;5045180;28;20076;-88
2021/09/17 07:57:08;;;;;;;7.32;6.13;;;20.00;65.70;;;;;;5045073;28;20025;-88
2021/09/17 07:59:34;;;;;;;6.30;5.25;;;19.80;66.30;;;;;;5048171;28;21376;-88
2021/09/17 08:01:59;;;;;;;8.85;4.95;;;19.60;67.80;;;;;;5047173;28;20029;-88
2021/09/17 08:04:25;;;;;;;6.25;5.65;;;19.80;67.30;;;;;;5046376;28;20029;-88
2021/09/17 08:06:51;;;;;;;7.05;6.13;;;20.00;66.90;;;;;;5046166;28;20025;-88
2021/09/17 08:09:16;;;;;;;10.73;6.20;;;19.90;67.50;;;;;;5046751;28;20078;-88
2021/09/17 08:11:43;;;;;;;7.32;5.95;;;19.30;68.30;;;;;;5046027;28;20029;-89
2021/09/17 08:14:09;;;;;;;9.50;6.68;;;18.80;70.30;;;;;;5046659;28;20043;-88
2021/09/17 08:16:35;;;;;;;7.72;6.32;;;18.80;70.50;;;;;;5051055;28;20036;-87
2021/09/17 08:19:01;;;;;;;6.88;5.10;;;19.20;70.20;;;;;;5044764;28;20042;-89
2021/09/17 08:21:26;;;;;;;7.10;5.60;;;19.60;69.40;;;;;;5037406;28;20115;-87
2021/09/17 08:23:52;;;;;;;7.78;6.18;;;19.80;69.00;;;;;;5050369;28;20056;-87
2021/09/17 08:26:18;;;;;;;8.13;6.57;;;19.70;68.80;;;;;;5048105;28;20041;-88
2021/09/17 08:28:44;;;;;;;9.25;6.97;;;19.60;69.30;;;;;;5061501;28;20784;-86
2021/09/17 08:31:10;;;;;;;7.68;6.78;;;19.80;68.90;;;;;;5036428;28;20029;-87
2021/09/17 08:33:36;;;;;;;7.65;6.15;;;19.70;69.40;;;;;;5036133;28;20573;-88
2021/09/17 08:36:03;;;;;;;7.68;5.95;;;19.90;69.30;;;;;;5042646;28;20033;-88
2021/09/17 08:38:29;;;;;;;7.88;6.25;;;20.30;68.30;;;;;;5046744;28;20111;-88
2021/09/17 08:40:57;;;;;;;7.57;6.50;;;20.80;66.60;;;;;;5039254;28;20386;-88
2021/09/17 08:43:23;;;;;;;6.85;6.15;;;21.20;65.70;;;;;;5036523;28;20586;-87
2021/09/17 08:45:49;;;;;;;8.35;6.55;;;21.40;64.30;;;;;;5036164;28;20018;-87
2021/09/17 08:48:16;;;;;;;9.55;7.65;;;21.00;65.00;;;;;;5036310;28;20092;-88
2021/09/17 08:50:43;;;;;;;9.07;7.40;;;21.50;64.00;;;;;;5036128;28;20040;-88
2021/09/17 08:53:09;;;;;;;9.43;7.35;;;22.00;63.40;;;;;;5036970;28;20511;-87
2021/09/17 08:55:35;;;;;;;11.52;7.32;;;22.80;61.20;;;;;;5039578;28;20515;-88
2021/09/17 08:58:01;;;;;;;8.48;6.85;;;23.60;58.60;;;;;;5035679;28;20030;-87
2021/09/17 09:00:26;;;;;;;6.65;5.88;;;24.30;56.70;;;;;;5035578;28;20549;-87
2021/09/17 09:02:57;;;;;;;8.43;6.50;;;24.60;56.20;;;;;;5041532;28;20119;-87
2021/09/17 09:05:35;;;;;;;8.68;6.90;;;25.00;55.10;;;;;;5047786;28;20033;-88
2021/09/17 09:08:02;;;;;;;9.57;6.97;;;24.90;55.70;;;;;;5035376;28;20041;-86
2021/09/17 09:10:28;;;;;;;9.18;6.95;;;24.10;57.40;;;;;;5049750;28;20058;-87
2021/09/17 09:12:56;;;;;;;11.02;7.30;;;23.80;57.60;;;;;;5033400;28;20040;-87
2021/09/17 09:15:25;;;;;;;9.20;7.25;;;23.00;60.40;;;;;;5035401;28;20041;-88
2021/09/17 09:17:56;;;;;;;8.37;7.07;;;22.70;61.10;;;;;;5034382;28;20029;-87
2021/09/17 09:20:39;;;;;;;8.48;7.50;;;22.50;61.80;;;;;;5039297;28;20025;-87
2021/09/17 09:23:15;;;;;;;8.18;6.80;;;22.30;63.40;;;;;;5041378;28;20471;-87
2021/09/17 09:26:10;;;;;;;8.27;6.47;;;22.30;63.60;;;;;;5035296;28;20030;-87
2021/09/17 09:28:45;;;;;;;7.68;6.78;;;22.30;63.00;;;;;;5052760;28;20175;-87
2021/09/17 09:31:13;;;;;;;7.55;5.38;;;22.40;63.40;;;;;;5072946;28;20387;-87
2021/09/17 09:33:41;;;;;;;6.63;5.20;;;22.30;63.30;;;;;;5062040;28;20717;-87
2021/09/17 09:36:12;;;;;;;8.32;6.03;;;22.40;61.90;;;;;;5065719;28;20541;-88
2021/09/17 09:38:55;;;;;;;8.05;6.18;;;22.40;63.10;;;;;;5065112;28;20029;-87
2021/09/17 09:41:26;;;;;;;6.97;5.50;;;22.30;64.00;;;;;;5063927;28;20039;-85
2021/09/17 09:43:58;;;;;;;7.80;4.93;;;22.30;62.90;;;;;;5063986;28;20033;-86
2021/09/17 09:46:31;;;;;;;7.25;5.32;;;22.20;62.30;;;;;;5073181;28;20052;-87
2021/09/17 09:49:02;;;;;;;7.35;5.00;;;22.00;62.80;;;;;;5066130;28;20479;-85
2021/09/17 09:51:31;;;;;;;5.60;4.45;;;21.90;63.20;;;;;;5060895;28;20032;-85
2021/09/17 09:54:00;;;;;;;10.15;4.35;;;21.90;63.90;;;;;;5068284;28;20023;-85
2021/09/17 09:56:26;;;;;;;6.93;4.38;;;21.80;62.60;;;;;;5070750;28;20049;-84
2021/09/17 09:58:51;;;;;;;7.78;4.03;;;21.50;63.40;;;;;;5065378;28;20036;-85
2021/09/17 10:01:22;;;;;;;5.65;4.03;;;21.30;64.40;;;;;;5058831;28;20066;-85
2021/09/17 10:03:53;;;;;;;3.95;3.40;;;21.40;63.10;;;;;;5062599;28;20026;-84
2021/09/17 10:06:20;;;;;;;7.72;3.30;;;21.40;64.20;;;;;;5073708;28;20410;-85
2021/09/17 10:08:46;;;;;;;4.25;3.00;;;21.50;64.20;;;;;;5058490;28;20029;-85
2021/09/17 10:11:12;;;;;;;4.55;2.88;;;21.50;64.30;;;;;;5063108;28;20029;-84
2021/09/17 10:13:38;;;;;;;4.70;3.45;;;21.60;63.80;;;;;;5072030;28;20490;-84
2021/09/17 10:16:05;;;;;;;3.92;3.05;;;21.70;64.50;;;;;;5073660;28;20179;-85
2021/09/17 10:18:31;;;;;;;3.75;2.72;;;21.80;63.50;;;;;;5058732;28;20057;-85
2021/09/17 10:20:57;;;;;;;3.42;2.40;;;21.90;64.60;;;;;;5071906;28;20121;-85
2021/09/17 10:23:25;;;;;;;3.17;2.00;;;21.90;63.20;;;;;;5073068;28;20020;-84
2021/09/17 10:26:11;;;;;;;3.13;1.92;;;21.70;62.00;;;;;;5073300;28;20017;-85
2021/09/17 10:29:01;;;;;;;3.65;2.35;;;21.70;62.50;;;;;;5060338;28;20946;-84
2021/09/17 10:31:43;;;;;;;5.32;2.03;;;21.80;62.40;;;;;;5042235;28;20037;-84
2021/09/17 10:34:30;;;;;;;2.40;1.67;;;21.90;63.00;;;;;;5061902;28;20028;-87
2021/09/17 10:36:56;;;;;;;2.72;1.90;;;22.00;60.90;;;;;;5057361;28;20030;-84
2021/09/17 10:39:22;;;;;;;2.92;1.83;;;21.90;61.10;;;;;;5052347;28;20092;-86
2021/09/17 10:42:11;;;;;;;2.70;2.20;;;22.00;61.30;;;;;;5041954;28;20036;-76
2021/09/17 10:45:01;;;;;;;3.67;1.95;;;22.00;61.20;;;;;;5049958;28;20025;-81
2021/09/17 10:47:54;;;;;;;3.88;2.00;;;22.00;61.70;;;;;;5046360;28;20041;-78
2021/09/17 10:50:21;;;;;;;2.47;1.80;;;22.10;61.40;;;;;;5048829;28;20706;-78
2021/09/17 10:52:48;;;;;;;3.20;2.05;;;22.20;61.70;;;;;;5050037;28;20025;-77
2021/09/17 10:56:02;;;;;;;2.75;2.17;;;22.20;61.10;;;;;;5047753;28;20148;-78
2021/09/17 10:58:33;;;;;;;3.95;1.42;;;22.30;60.90;;;;;;5072804;28;20406;-76
2021/09/17 11:01:06;;;;;;;2.65;1.70;;;22.40;60.10;;;;;;5054860;28;20029;-79
2021/09/17 11:03:41;;;;;;;2.22;1.73;;;22.40;59.80;;;;;;5043107;28;20033;-75
2021/09/17 11:06:18;;;;;;;2.65;1.45;;;22.40;59.20;;;;;;5049358;28;20030;-76
2021/09/17 11:08:52;;;;;;;2.60;1.98;;;22.60;59.40;;;;;;5054868;28;20108;-76
2021/09/17 11:11:26;;;;;;;1.63;1.05;;;22.50;58.80;;;;;;5051261;28;20028;-77
2021/09/17 11:14:03;;;;;;;2.60;1.58;;;22.30;59.00;;;;;;5054017;28;20119;-77
2021/09/17 11:16:31;;;;;;;2.50;1.20;;;22.30;58.20;;;;;;5049135;28;20480;-80
2021/09/17 11:19:04;;;;;;;4.00;1.67;;;22.50;57.80;;;;;;5042765;28;20033;-75
2021/09/17 11:21:32;;;;;;;4.30;1.27;;;22.60;57.40;;;;;;5056967;28;20029;-76
2021/09/17 11:23:59;;;;;;;2.22;1.20;;;22.70;56.40;;;;;;5056678;28;20032;-76
2021/09/17 11:26:34;;;;;;;2.25;1.20;;;22.70;54.80;;;;;;5043853;28;20017;-76
2021/09/17 11:29:07;;;;;;;2.45;0.90;;;22.90;54.80;;;;;;5049235;28;20060;-77
2021/09/17 11:31:35;;;;;;;1.90;1.20;;;23.20;55.20;;;;;;5047108;28;20372;-76
2021/09/17 11:34:13;;;;;;;1.77;1.20;;;23.30;54.00;;;;;;5048876;28;20029;-76
2021/09/17 11:36:44;;;;;;;1.88;1.10;;;23.30;53.20;;;;;;5049213;28;20017;-76
2021/09/17 11:39:20;;;;;;;1.85;0.88;;;23.60;54.50;;;;;;5053900;28;20036;-76
2021/09/17 11:41:51;;;;;;;1.67;0.70;;;23.70;52.10;;;;;;5051016;28;20487;-76
2021/09/17 11:44:38;;;;;;;1.10;0.70;;;23.80;53.40;;;;;;5059142;28;20032;-77
2021/09/17 11:47:07;;;;;;;1.08;0.77;;;23.80;52.10;;;;;;5061452;28;20029;-76
2021/09/17 11:49:35;;;;;;;1.42;0.80;;;23.80;52.90;;;;;;5074526;28;20043;-76
2021/09/17 11:52:06;;;;;;;2.35;0.77;;;23.60;51.40;;;;;;5076247;28;20029;-76
2021/09/17 11:54:33;;;;;;;4.97;2.45;;;23.50;51.70;;;;;;5068635;28;20037;-76
2021/09/17 11:57:00;;;;;;;1.48;0.95;;;23.40;51.90;;;;;;5070178;28;20720;-76
2021/09/17 11:59:38;;;;;;;1.60;0.90;;;23.40;51.40;;;;;;5066553;28;20028;-76
2021/09/17 12:02:12;;;;;;;2.15;1.17;;;23.40;53.60;;;;;;5076186;28;20090;-76
2021/09/17 12:04:40;;;;;;;2.00;1.02;;;23.60;54.50;;;;;;5066373;28;20055;-76
2021/09/17 12:07:05;;;;;;;2.33;1.20;;;23.70;53.50;;;;;;5075324;28;20040;-76
2021/09/17 12:09:31;;;;;;;1.90;0.90;;;23.50;52.40;;;;;;5067360;28;20039;-76
2021/09/17 12:11:57;;;;;;;1.83;0.90;;;23.60;53.30;;;;;;5047906;28;20028;-77
2021/09/17 12:14:24;;;;;;;1.52;0.80;;;23.40;53.70;;;;;;5065685;28;20029;-77
2021/09/17 12:16:49;;;;;;;1.13;0.70;;;23.50;52.00;;;;;;5071596;28;20026;-76
2021/09/17 12:19:15;;;;;;;1.00;0.60;;;23.70;54.70;;;;;;5075586;28;20513;-76
2021/09/17 12:21:41;;;;;;;1.17;0.63;;;23.90;53.30;;;;;;5072086;28;20024;-76
2021/09/17 12:24:21;;;;;;;2.10;0.70;;;24.00;52.30;;;;;;5072757;28;20036;-75
2021/09/17 12:26:58;;;;;;;1.30;0.70;;;24.10;50.90;;;;;;5068111;28;20100;-76
2021/09/17 12:29:25;;;;;;;1.60;0.77;;;24.10;50.00;;;;;;5057090;28;20058;-76
2021/09/17 12:31:51;;;;;;;1.88;0.98;;;23.90;51.40;;;;;;5071574;28;20503;-76
2021/09/17 12:34:17;;;;;;;1.63;0.80;;;23.90;51.90;;;;;;5073107;28;20020;-76
2021/09/17 12:36:55;;;;;;;1.40;0.82;;;24.20;52.00;;;;;;5051352;28;20029;-76
2021/09/17 12:39:26;;;;;;;1.77;0.80;;;24.10;51.00;;;;;;5060086;28;20094;-77
2021/09/17 12:42:06;;;;;;;2.38;0.95;;;24.30;50.90;;;;;;5064412;28;20044;-78
2021/09/17 12:44:40;;;;;;;1.30;0.82;;;24.50;50.30;;;;;;5046076;28;20430;-76
2021/09/17 12:47:06;;;;;;;3.30;0.90;;;24.70;50.20;;;;;;5044858;28;20041;-76
2021/09/17 12:49:31;;;;;;;1.40;0.70;;;24.40;49.50;;;;;;5043272;28;20031;-76